sensor_id;sensor_type;location;lat;lon;timestamp;temperature;humidity
16999;DHT22;10211;49.476;11.010;2023-03-01T00:01:08;-3.10;99.90
16999;DHT22;10211;49.476;11.010;2023-03-01T00:03:35;-3.10;99.90
16999;DHT22;10211;49.476;11.010;2023-03-01T00:06:03;-3.20;99.90
16999;DHT22;10211;49.476;11.010;2023-03-01T00:08:30;-3.20;99.90
16999;DHT22;10211;49.476;11.010;2023-03-01T00:11:04;-3.30;99.90
16999;DHT22;10211;49.476;11.010;2023-03-01T00:13:32;-3.20;99.90
16999;DHT22;10211;49.476;11.010;2023-03-01T00:15:59;-3.30;99.90
16999;DHT22;10211;49.476;11.010;2023-03-01T00:18:27;-3.40;99.90
16999;DHT22;10211;49.476;11.010;2023-03-01T00:20:55;-3.40;99.90
16999;DHT22;10211;49.476;11.010;2023-03-01T00:23:23;-3.50;99.90
16999;DHT22;10211;49.476;11.010;2023-03-01T00:25:50;-3.50;99.90
16999;DHT22;10211;49.476;11.010;2023-03-01T00:28:18;-3.50;99.90
16999;DHT22;10211;49.476;11.010;2023-03-01T00:30:45;-3.50;99.90
16999;DHT22;10211;49.476;11.010;2023-03-01T00:33:13;-3.50;99.90
16999;DHT22;10211;49.476;11.010;2023-03-01T00:35:40;-3.50;99.90
16999;DHT22;10211;49.476;11.010;2023-03-01T00:38:07;-3.50;99.90
16999;DHT22;10211;49.476;11.010;2023-03-01T00:40:35;-3.60;99.90
16999;DHT22;10211;49.476;11.010;2023-03-01T00:43:02;-3.50;99.90
16999;DHT22;10211;49.476;11.010;2023-03-01T00:45:32;-3.50;99.90
16999;DHT22;10211;49.476;11.010;2023-03-01T00:47:59;-3.50;99.90
16999;DHT22;10211;49.476;11.010;2023-03-01T00:50:25;-3.50;99.90
16999;DHT22;10211;49.476;11.010;2023-03-01T00:52:53;-3.60;99.90
16999;DHT22;10211;49.476;11.010;2023-03-01T00:55:20;-3.60;99.90
16999;DHT22;10211;49.476;11.010;2023-03-01T00:57:47;-3.60;99.90
16999;DHT22;10211;49.476;11.010;2023-03-01T01:00:14;-3.60;99.90
16999;DHT22;10211;49.476;11.010;2023-03-01T01:02:42;-3.60;99.90
16999;DHT22;10211;49.476;11.010;2023-03-01T01:05:10;-3.70;99.90
16999;DHT22;10211;49.476;11.010;2023-03-01T01:07:36;-3.70;99.90
16999;DHT22;10211;49.476;11.010;2023-03-01T01:10:04;-3.80;99.90
16999;DHT22;10211;49.476;11.010;2023-03-01T01:12:31;-3.80;99.90
16999;DHT22;10211;49.476;11.010;2023-03-01T01:14:58;-3.80;99.90
16999;DHT22;10211;49.476;11.010;2023-03-01T01:17:25;-3.80;99.90
16999;DHT22;10211;49.476;11.010;2023-03-01T01:19:53;-3.80;99.90
16999;DHT22;10211;49.476;11.010;2023-03-01T01:22:20;-3.80;99.90
16999;DHT22;10211;49.476;11.010;2023-03-01T01:24:47;-3.80;99.90
16999;DHT22;10211;49.476;11.010;2023-03-01T01:27:13;-3.80;99.90
16999;DHT22;10211;49.476;11.010;2023-03-01T01:29:40;-3.90;99.90
16999;DHT22;10211;49.476;11.010;2023-03-01T01:32:07;-3.90;99.90
16999;DHT22;10211;49.476;11.010;2023-03-01T01:34:34;-3.90;99.90
16999;DHT22;10211;49.476;11.010;2023-03-01T01:37:02;-3.80;99.90
16999;DHT22;10211;49.476;11.010;2023-03-01T01:39:29;-3.80;99.90
16999;DHT22;10211;49.476;11.010;2023-03-01T01:41:56;-3.80;99.90
16999;DHT22;10211;49.476;11.010;2023-03-01T01:44:24;-3.80;99.90
16999;DHT22;10211;49.476;11.010;2023-03-01T01:46:54;-3.80;99.90
16999;DHT22;10211;49.476;11.010;2023-03-01T01:49:29;-3.80;99.90
16999;DHT22;10211;49.476;11.010;2023-03-01T01:52:04;-3.70;99.90
16999;DHT22;10211;49.476;11.010;2023-03-01T01:54:38;-3.80;99.90
16999;DHT22;10211;49.476;11.010;2023-03-01T01:57:11;-3.80;99.90
16999;DHT22;10211;49.476;11.010;2023-03-01T01:59:43;-3.80;99.90
16999;DHT22;10211;49.476;11.010;2023-03-01T02:02:13;-3.80;99.90
16999;DHT22;10211;49.476;11.010;2023-03-01T02:04:40;-3.90;99.90
16999;DHT22;10211;49.476;11.010;2023-03-01T02:07:13;-3.90;99.90
16999;DHT22;10211;49.476;11.010;2023-03-01T02:09:43;-3.90;99.90
16999;DHT22;10211;49.476;11.010;2023-03-01T02:12:15;-4.00;99.90
16999;DHT22;10211;49.476;11.010;2023-03-01T02:14:43;-3.90;99.90
16999;DHT22;10211;49.476;11.010;2023-03-01T02:17:11;-4.00;99.90
16999;DHT22;10211;49.476;11.010;2023-03-01T02:19:47;-4.00;99.90
16999;DHT22;10211;49.476;11.010;2023-03-01T02:22:23;-4.10;99.90
16999;DHT22;10211;49.476;11.010;2023-03-01T02:24:57;-4.10;99.90
16999;DHT22;10211;49.476;11.010;2023-03-01T02:27:35;-4.10;99.90
16999;DHT22;10211;49.476;11.010;2023-03-01T02:30:05;-4.10;99.90
16999;DHT22;10211;49.476;11.010;2023-03-01T02:32:33;-4.10;99.90
16999;DHT22;10211;49.476;11.010;2023-03-01T02:35:00;-4.10;99.90
16999;DHT22;10211;49.476;11.010;2023-03-01T02:37:28;-4.10;99.90
16999;DHT22;10211;49.476;11.010;2023-03-01T02:39:58;-4.10;99.90
16999;DHT22;10211;49.476;11.010;2023-03-01T02:42:28;-4.10;99.90
16999;DHT22;10211;49.476;11.010;2023-03-01T02:44:56;-4.10;99.90
16999;DHT22;10211;49.476;11.010;2023-03-01T02:47:25;-4.10;99.90
16999;DHT22;10211;49.476;11.010;2023-03-01T02:49:51;-4.10;99.90
16999;DHT22;10211;49.476;11.010;2023-03-01T02:52:37;-4.10;99.90
16999;DHT22;10211;49.476;11.010;2023-03-01T02:55:09;-4.00;99.90
16999;DHT22;10211;49.476;11.010;2023-03-01T02:57:40;-4.00;99.90
16999;DHT22;10211;49.476;11.010;2023-03-01T03:00:10;-3.50;99.90
16999;DHT22;10211;49.476;11.010;2023-03-01T03:02:46;-4.00;99.90
16999;DHT22;10211;49.476;11.010;2023-03-01T03:05:15;-4.00;99.90
16999;DHT22;10211;49.476;11.010;2023-03-01T03:07:44;-4.00;99.90
16999;DHT22;10211;49.476;11.010;2023-03-01T03:10:13;-4.00;99.90
16999;DHT22;10211;49.476;11.010;2023-03-01T03:12:40;-4.00;99.90
16999;DHT22;10211;49.476;11.010;2023-03-01T03:15:09;-4.00;99.90
16999;DHT22;10211;49.476;11.010;2023-03-01T03:17:38;-4.10;99.90
16999;DHT22;10211;49.476;11.010;2023-03-01T03:20:09;-4.10;99.90
16999;DHT22;10211;49.476;11.010;2023-03-01T03:22:38;-4.10;99.90
16999;DHT22;10211;49.476;11.010;2023-03-01T03:25:06;-4.10;99.90
16999;DHT22;10211;49.476;11.010;2023-03-01T03:27:35;-4.20;99.90
16999;DHT22;10211;49.476;11.010;2023-03-01T03:30:03;-4.20;99.90
16999;DHT22;10211;49.476;11.010;2023-03-01T03:32:34;-4.20;99.90
16999;DHT22;10211;49.476;11.010;2023-03-01T03:35:01;-4.20;99.90
16999;DHT22;10211;49.476;11.010;2023-03-01T03:37:30;-4.20;99.90
16999;DHT22;10211;49.476;11.010;2023-03-01T03:40:14;-4.30;99.90
16999;DHT22;10211;49.476;11.010;2023-03-01T03:42:41;-4.30;99.90
16999;DHT22;10211;49.476;11.010;2023-03-01T03:45:08;-4.30;99.90
16999;DHT22;10211;49.476;11.010;2023-03-01T03:47:35;-4.30;99.90
16999;DHT22;10211;49.476;11.010;2023-03-01T03:50:02;-4.40;99.90
16999;DHT22;10211;49.476;11.010;2023-03-01T03:52:30;-4.40;99.90
16999;DHT22;10211;49.476;11.010;2023-03-01T03:54:56;-4.40;99.90
16999;DHT22;10211;49.476;11.010;2023-03-01T03:57:23;-4.40;99.90
16999;DHT22;10211;49.476;11.010;2023-03-01T03:59:50;-4.50;99.90
16999;DHT22;10211;49.476;11.010;2023-03-01T04:02:16;-4.50;99.90
16999;DHT22;10211;49.476;11.010;2023-03-01T04:04:47;-4.50;99.90
16999;DHT22;10211;49.476;11.010;2023-03-01T04:07:15;-4.50;99.90
16999;DHT22;10211;49.476;11.010;2023-03-01T04:09:43;-4.60;99.90
16999;DHT22;10211;49.476;11.010;2023-03-01T04:12:10;-4.60;99.90
16999;DHT22;10211;49.476;11.010;2023-03-01T04:14:37;-4.60;99.90
16999;DHT22;10211;49.476;11.010;2023-03-01T04:17:04;-4.60;99.90
16999;DHT22;10211;49.476;11.010;2023-03-01T04:19:31;-4.60;99.90
16999;DHT22;10211;49.476;11.010;2023-03-01T04:22:01;-4.60;99.90
16999;DHT22;10211;49.476;11.010;2023-03-01T04:24:32;-4.60;99.90
16999;DHT22;10211;49.476;11.010;2023-03-01T04:27:00;-4.70;99.90
16999;DHT22;10211;49.476;11.010;2023-03-01T04:29:27;-4.70;99.90
16999;DHT22;10211;49.476;11.010;2023-03-01T04:31:54;-4.60;99.90
16999;DHT22;10211;49.476;11.010;2023-03-01T04:34:21;-4.70;99.90
16999;DHT22;10211;49.476;11.010;2023-03-01T04:36:48;-4.70;99.90
16999;DHT22;10211;49.476;11.010;2023-03-01T04:39:14;-4.70;99.90
16999;DHT22;10211;49.476;11.010;2023-03-01T04:41:41;-4.70;99.90
16999;DHT22;10211;49.476;11.010;2023-03-01T04:44:10;-4.50;99.90
16999;DHT22;10211;49.476;11.010;2023-03-01T04:46:37;-4.70;99.90
16999;DHT22;10211;49.476;11.010;2023-03-01T04:49:03;-4.80;99.90
16999;DHT22;10211;49.476;11.010;2023-03-01T04:51:31;-4.80;99.90
16999;DHT22;10211;49.476;11.010;2023-03-01T04:53:58;-4.80;99.90
16999;DHT22;10211;49.476;11.010;2023-03-01T04:56:25;-4.70;99.90
16999;DHT22;10211;49.476;11.010;2023-03-01T04:58:53;-4.70;99.90
16999;DHT22;10211;49.476;11.010;2023-03-01T05:01:21;-4.70;99.90
16999;DHT22;10211;49.476;11.010;2023-03-01T05:03:50;-4.60;99.90
16999;DHT22;10211;49.476;11.010;2023-03-01T05:06:18;-4.50;99.90
16999;DHT22;10211;49.476;11.010;2023-03-01T05:08:45;-4.40;99.90
16999;DHT22;10211;49.476;11.010;2023-03-01T05:11:12;-4.30;99.90
16999;DHT22;10211;49.476;11.010;2023-03-01T05:13:39;-4.20;99.90
16999;DHT22;10211;49.476;11.010;2023-03-01T05:16:07;-4.10;99.90
16999;DHT22;10211;49.476;11.010;2023-03-01T05:18:38;-4.10;99.90
16999;DHT22;10211;49.476;11.010;2023-03-01T05:21:06;-4.00;99.90
16999;DHT22;10211;49.476;11.010;2023-03-01T05:23:34;-4.00;99.90
16999;DHT22;10211;49.476;11.010;2023-03-01T05:26:02;-4.10;99.90
16999;DHT22;10211;49.476;11.010;2023-03-01T05:28:30;-4.20;99.90
16999;DHT22;10211;49.476;11.010;2023-03-01T05:30:57;-4.30;99.90
16999;DHT22;10211;49.476;11.010;2023-03-01T05:33:25;-4.40;99.90
16999;DHT22;10211;49.476;11.010;2023-03-01T05:35:54;-4.00;99.90
16999;DHT22;10211;49.476;11.010;2023-03-01T05:38:21;-4.30;99.90
16999;DHT22;10211;49.476;11.010;2023-03-01T05:40:48;-4.20;99.90
16999;DHT22;10211;49.476;11.010;2023-03-01T05:43:16;-4.20;99.90
16999;DHT22;10211;49.476;11.010;2023-03-01T05:45:43;-4.20;99.90
16999;DHT22;10211;49.476;11.010;2023-03-01T05:48:11;-4.30;99.90
16999;DHT22;10211;49.476;11.010;2023-03-01T05:50:40;-4.30;99.90
16999;DHT22;10211;49.476;11.010;2023-03-01T05:53:10;-4.30;99.90
16999;DHT22;10211;49.476;11.010;2023-03-01T05:55:38;-4.20;99.90
16999;DHT22;10211;49.476;11.010;2023-03-01T05:58:06;-4.10;99.90
16999;DHT22;10211;49.476;11.010;2023-03-01T06:00:34;-4.00;99.90
16999;DHT22;10211;49.476;11.010;2023-03-01T06:03:02;-4.00;99.90
16999;DHT22;10211;49.476;11.010;2023-03-01T06:05:29;-3.90;99.90
16999;DHT22;10211;49.476;11.010;2023-03-01T06:07:58;-3.80;99.90
16999;DHT22;10211;49.476;11.010;2023-03-01T06:10:27;-3.80;99.90
16999;DHT22;10211;49.476;11.010;2023-03-01T06:12:54;-3.70;99.90
16999;DHT22;10211;49.476;11.010;2023-03-01T06:15:22;-3.70;99.90
16999;DHT22;10211;49.476;11.010;2023-03-01T06:17:49;-3.60;99.90
16999;DHT22;10211;49.476;11.010;2023-03-01T06:20:18;-3.60;99.90
16999;DHT22;10211;49.476;11.010;2023-03-01T06:22:45;-3.60;99.90
16999;DHT22;10211;49.476;11.010;2023-03-01T06:25:14;-3.70;99.90
16999;DHT22;10211;49.476;11.010;2023-03-01T06:27:43;-3.60;99.90
16999;DHT22;10211;49.476;11.010;2023-03-01T06:30:13;-3.60;99.90
16999;DHT22;10211;49.476;11.010;2023-03-01T06:32:41;-3.60;99.90
16999;DHT22;10211;49.476;11.010;2023-03-01T06:35:09;-3.50;99.90
16999;DHT22;10211;49.476;11.010;2023-03-01T06:37:36;-3.50;99.90
16999;DHT22;10211;49.476;11.010;2023-03-01T06:40:04;-3.40;99.90
16999;DHT22;10211;49.476;11.010;2023-03-01T06:42:33;-3.30;99.90
16999;DHT22;10211;49.476;11.010;2023-03-01T06:45:02;-3.20;99.90
16999;DHT22;10211;49.476;11.010;2023-03-01T06:47:29;-3.10;99.90
16999;DHT22;10211;49.476;11.010;2023-03-01T06:49:56;-2.90;99.90
16999;DHT22;10211;49.476;11.010;2023-03-01T06:52:22;-2.60;99.90
16999;DHT22;10211;49.476;11.010;2023-03-01T06:54:49;-2.30;99.90
16999;DHT22;10211;49.476;11.010;2023-03-01T06:57:16;-1.70;99.90
16999;DHT22;10211;49.476;11.010;2023-03-01T06:59:43;-0.80;99.90
16999;DHT22;10211;49.476;11.010;2023-03-01T07:02:12;-0.30;99.90
16999;DHT22;10211;49.476;11.010;2023-03-01T07:04:39;0.20;99.90
16999;DHT22;10211;49.476;11.010;2023-03-01T07:07:06;0.50;99.90
16999;DHT22;10211;49.476;11.010;2023-03-01T07:09:33;0.50;99.90
16999;DHT22;10211;49.476;11.010;2023-03-01T07:12:00;0.50;99.90
16999;DHT22;10211;49.476;11.010;2023-03-01T07:14:27;0.60;99.90
16999;DHT22;10211;49.476;11.010;2023-03-01T07:16:54;0.50;99.90
16999;DHT22;10211;49.476;11.010;2023-03-01T07:19:23;0.40;99.90
16999;DHT22;10211;49.476;11.010;2023-03-01T07:21:49;0.40;99.90
16999;DHT22;10211;49.476;11.010;2023-03-01T07:24:16;0.30;99.90
16999;DHT22;10211;49.476;11.010;2023-03-01T07:26:43;0.10;99.90
16999;DHT22;10211;49.476;11.010;2023-03-01T07:29:10;0.00;99.90
16999;DHT22;10211;49.476;11.010;2023-03-01T07:31:37;0.00;99.90
16999;DHT22;10211;49.476;11.010;2023-03-01T07:34:04;0.10;99.90
16999;DHT22;10211;49.476;11.010;2023-03-01T07:36:32;0.30;99.90
16999;DHT22;10211;49.476;11.010;2023-03-01T07:38:59;1.10;99.90
16999;DHT22;10211;49.476;11.010;2023-03-01T07:41:28;2.90;99.90
16999;DHT22;10211;49.476;11.010;2023-03-01T07:43:54;4.60;99.90
16999;DHT22;10211;49.476;11.010;2023-03-01T07:46:21;5.20;97.00
16999;DHT22;10211;49.476;11.010;2023-03-01T07:48:50;5.20;95.20
16999;DHT22;10211;49.476;11.010;2023-03-01T07:51:17;5.10;94.60
16999;DHT22;10211;49.476;11.010;2023-03-01T07:53:47;5.30;92.80
16999;DHT22;10211;49.476;11.010;2023-03-01T07:56:15;5.70;92.40
16999;DHT22;10211;49.476;11.010;2023-03-01T07:58:43;6.10;90.10
16999;DHT22;10211;49.476;11.010;2023-03-01T08:01:12;6.80;88.20
16999;DHT22;10211;49.476;11.010;2023-03-01T08:03:39;7.50;83.90
16999;DHT22;10211;49.476;11.010;2023-03-01T08:06:07;8.20;81.10
16999;DHT22;10211;49.476;11.010;2023-03-01T08:08:34;9.50;76.90
16999;DHT22;10211;49.476;11.010;2023-03-01T08:11:04;10.60;70.70
16999;DHT22;10211;49.476;11.010;2023-03-01T08:13:32;11.60;66.60
16999;DHT22;10211;49.476;11.010;2023-03-01T08:16:01;12.60;64.00
16999;DHT22;10211;49.476;11.010;2023-03-01T08:18:28;13.20;60.30
16999;DHT22;10211;49.476;11.010;2023-03-01T08:20:55;14.10;57.40
16999;DHT22;10211;49.476;11.010;2023-03-01T08:23:22;15.30;56.40
16999;DHT22;10211;49.476;11.010;2023-03-01T08:25:48;15.40;53.50
16999;DHT22;10211;49.476;11.010;2023-03-01T08:28:16;15.00;52.30
16999;DHT22;10211;49.476;11.010;2023-03-01T08:30:43;15.50;52.10
16999;DHT22;10211;49.476;11.010;2023-03-01T08:33:10;14.00;51.30
16999;DHT22;10211;49.476;11.010;2023-03-01T08:35:36;11.10;54.80
16999;DHT22;10211;49.476;11.010;2023-03-01T08:38:03;9.00;59.60
16999;DHT22;10211;49.476;11.010;2023-03-01T08:40:30;7.70;62.80
16999;DHT22;10211;49.476;11.010;2023-03-01T08:42:57;6.80;66.50
16999;DHT22;10211;49.476;11.010;2023-03-01T08:45:25;6.10;69.70
16999;DHT22;10211;49.476;11.010;2023-03-01T08:47:52;5.00;70.80
16999;DHT22;10211;49.476;11.010;2023-03-01T08:50:19;4.50;73.50
16999;DHT22;10211;49.476;11.010;2023-03-01T08:52:46;4.10;75.10
16999;DHT22;10211;49.476;11.010;2023-03-01T08:55:13;3.90;76.10
16999;DHT22;10211;49.476;11.010;2023-03-01T08:57:41;3.60;76.70
16999;DHT22;10211;49.476;11.010;2023-03-01T09:00:09;3.50;77.90
16999;DHT22;10211;49.476;11.010;2023-03-01T09:02:39;3.30;78.50
16999;DHT22;10211;49.476;11.010;2023-03-01T09:05:07;3.30;79.70
16999;DHT22;10211;49.476;11.010;2023-03-01T09:07:33;3.30;79.90
16999;DHT22;10211;49.476;11.010;2023-03-01T09:10:00;3.30;79.70
16999;DHT22;10211;49.476;11.010;2023-03-01T09:12:27;3.30;79.80
16999;DHT22;10211;49.476;11.010;2023-03-01T09:14:54;3.30;79.70
16999;DHT22;10211;49.476;11.010;2023-03-01T09:17:20;3.20;80.20
16999;DHT22;10211;49.476;11.010;2023-03-01T09:19:49;3.30;80.80
16999;DHT22;10211;49.476;11.010;2023-03-01T09:22:15;3.50;80.90
16999;DHT22;10211;49.476;11.010;2023-03-01T09:24:42;3.40;80.50
16999;DHT22;10211;49.476;11.010;2023-03-01T09:27:09;3.40;81.00
16999;DHT22;10211;49.476;11.010;2023-03-01T09:29:36;3.50;80.80
16999;DHT22;10211;49.476;11.010;2023-03-01T09:32:03;3.60;80.40
16999;DHT22;10211;49.476;11.010;2023-03-01T09:34:31;3.50;79.90
16999;DHT22;10211;49.476;11.010;2023-03-01T09:37:19;3.60;80.70
16999;DHT22;10211;49.476;11.010;2023-03-01T09:39:45;3.60;80.40
16999;DHT22;10211;49.476;11.010;2023-03-01T09:42:13;3.70;80.20
16999;DHT22;10211;49.476;11.010;2023-03-01T09:44:45;3.70;80.10
16999;DHT22;10211;49.476;11.010;2023-03-01T09:47:17;3.80;79.80
16999;DHT22;10211;49.476;11.010;2023-03-01T09:49:50;3.80;79.30
16999;DHT22;10211;49.476;11.010;2023-03-01T09:52:25;3.80;79.50
16999;DHT22;10211;49.476;11.010;2023-03-01T09:54:57;3.70;79.00
16999;DHT22;10211;49.476;11.010;2023-03-01T09:57:30;3.80;79.10
16999;DHT22;10211;49.476;11.010;2023-03-01T10:00:12;3.80;79.20
16999;DHT22;10211;49.476;11.010;2023-03-01T10:02:45;3.90;79.10
16999;DHT22;10211;49.476;11.010;2023-03-01T10:05:26;4.00;79.30
16999;DHT22;10211;49.476;11.010;2023-03-01T10:08:06;4.30;78.90
16999;DHT22;10211;49.476;11.010;2023-03-01T10:10:43;4.40;78.30
16999;DHT22;10211;49.476;11.010;2023-03-01T10:13:15;4.40;77.60
16999;DHT22;10211;49.476;11.010;2023-03-01T10:15:45;4.40;77.50
16999;DHT22;10211;49.476;11.010;2023-03-01T10:18:18;4.40;78.10
16999;DHT22;10211;49.476;11.010;2023-03-01T10:20:50;4.50;77.70
16999;DHT22;10211;49.476;11.010;2023-03-01T10:23:20;4.60;77.30
16999;DHT22;10211;49.476;11.010;2023-03-01T10:26:08;4.70;76.90
16999;DHT22;10211;49.476;11.010;2023-03-01T10:28:45;4.70;76.50
16999;DHT22;10211;49.476;11.010;2023-03-01T10:31:20;4.80;76.90
16999;DHT22;10211;49.476;11.010;2023-03-01T10:33:53;4.90;75.70
16999;DHT22;10211;49.476;11.010;2023-03-01T10:36:21;5.20;76.10
16999;DHT22;10211;49.476;11.010;2023-03-01T10:38:52;6.70;74.50
16999;DHT22;10211;49.476;11.010;2023-03-01T10:41:19;10.00;68.10
16999;DHT22;10211;49.476;11.010;2023-03-01T10:43:50;12.70;60.50
16999;DHT22;10211;49.476;11.010;2023-03-01T10:46:27;15.60;56.00
16999;DHT22;10211;49.476;11.010;2023-03-01T10:49:21;17.80;48.30
16999;DHT22;10211;49.476;11.010;2023-03-01T10:51:52;18.70;45.30
16999;DHT22;10211;49.476;11.010;2023-03-01T10:54:23;19.70;44.00
16999;DHT22;10211;49.476;11.010;2023-03-01T10:56:53;20.20;41.60
16999;DHT22;10211;49.476;11.010;2023-03-01T10:59:27;21.20;41.10
16999;DHT22;10211;49.476;11.010;2023-03-01T11:02:15;21.90;40.10
16999;DHT22;10211;49.476;11.010;2023-03-01T11:04:57;22.40;38.20
16999;DHT22;10211;49.476;11.010;2023-03-01T11:07:24;22.50;38.20
16999;DHT22;10211;49.476;11.010;2023-03-01T11:09:55;23.70;37.20
16999;DHT22;10211;49.476;11.010;2023-03-01T11:12:22;23.70;36.20
16999;DHT22;10211;49.476;11.010;2023-03-01T11:14:51;23.20;35.50
16999;DHT22;10211;49.476;11.010;2023-03-01T11:17:24;22.80;36.50
16999;DHT22;10211;49.476;11.010;2023-03-01T11:20:13;23.40;36.10
16999;DHT22;10211;49.476;11.010;2023-03-01T11:22:46;23.10;35.80
16999;DHT22;10211;49.476;11.010;2023-03-01T11:25:15;22.40;35.50
16999;DHT22;10211;49.476;11.010;2023-03-01T11:27:44;21.90;36.00
16999;DHT22;10211;49.476;11.010;2023-03-01T11:30:15;22.10;36.40
16999;DHT22;10211;49.476;11.010;2023-03-01T11:32:47;22.20;35.90
16999;DHT22;10211;49.476;11.010;2023-03-01T11:35:19;22.00;36.20
16999;DHT22;10211;49.476;11.010;2023-03-01T11:37:55;22.80;36.60
16999;DHT22;10211;49.476;11.010;2023-03-01T11:40:31;23.20;35.10
16999;DHT22;10211;49.476;11.010;2023-03-01T11:43:09;24.30;34.70
16999;DHT22;10211;49.476;11.010;2023-03-01T11:45:48;24.90;33.80
16999;DHT22;10211;49.476;11.010;2023-03-01T11:48:36;25.30;33.00
16999;DHT22;10211;49.476;11.010;2023-03-01T11:51:08;25.40;33.20
16999;DHT22;10211;49.476;11.010;2023-03-01T11:53:51;24.30;33.50
16999;DHT22;10211;49.476;11.010;2023-03-01T11:56:28;23.20;34.30
16999;DHT22;10211;49.476;11.010;2023-03-01T11:59:24;21.70;35.30
16999;DHT22;10211;49.476;11.010;2023-03-01T12:02:08;21.30;37.00
16999;DHT22;10211;49.476;11.010;2023-03-01T12:04:54;21.00;37.20
16999;DHT22;10211;49.476;11.010;2023-03-01T12:07:37;20.60;37.40
16999;DHT22;10211;49.476;11.010;2023-03-01T12:10:23;20.30;37.90
16999;DHT22;10211;49.476;11.010;2023-03-01T12:15:55;18.20;40.10
16999;DHT22;10211;49.476;11.010;2023-03-01T12:18:40;18.20;41.40
16999;DHT22;10211;49.476;11.010;2023-03-01T12:21:17;17.80;41.10
16999;DHT22;10211;49.476;11.010;2023-03-01T12:26:56;15.30;44.90
16999;DHT22;10211;49.476;11.010;2023-03-01T12:29:30;14.30;46.90
16999;DHT22;10211;49.476;11.010;2023-03-01T12:32:27;14.10;47.10
16999;DHT22;10211;49.476;11.010;2023-03-01T12:35:11;14.30;48.30
16999;DHT22;10211;49.476;11.010;2023-03-01T12:37:47;14.50;47.80
16999;DHT22;10211;49.476;11.010;2023-03-01T12:40:35;15.10;46.50
16999;DHT22;10211;49.476;11.010;2023-03-01T12:43:16;15.20;46.30
16999;DHT22;10211;49.476;11.010;2023-03-01T12:45:54;14.90;46.90
16999;DHT22;10211;49.476;11.010;2023-03-01T12:48:34;14.80;47.20
16999;DHT22;10211;49.476;11.010;2023-03-01T12:51:08;14.30;47.90
16999;DHT22;10211;49.476;11.010;2023-03-01T12:53:40;13.50;49.40
16999;DHT22;10211;49.476;11.010;2023-03-01T12:56:10;13.40;50.30
16999;DHT22;10211;49.476;11.010;2023-03-01T12:58:42;13.70;50.40
16999;DHT22;10211;49.476;11.010;2023-03-01T13:01:21;13.90;49.80
16999;DHT22;10211;49.476;11.010;2023-03-01T13:04:02;14.10;50.00
16999;DHT22;10211;49.476;11.010;2023-03-01T13:06:37;14.60;49.60
16999;DHT22;10211;49.476;11.010;2023-03-01T13:09:13;14.80;49.20
16999;DHT22;10211;49.476;11.010;2023-03-01T13:11:42;15.20;48.70
16999;DHT22;10211;49.476;11.010;2023-03-01T13:17:31;16.20;46.70
16999;DHT22;10211;49.476;11.010;2023-03-01T13:19:59;16.40;46.40
16999;DHT22;10211;49.476;11.010;2023-03-01T13:22:28;16.30;46.70
16999;DHT22;10211;49.476;11.010;2023-03-01T13:25:13;16.00;46.70
16999;DHT22;10211;49.476;11.010;2023-03-01T13:27:40;15.70;47.60
16999;DHT22;10211;49.476;11.010;2023-03-01T13:30:40;15.20;48.70
16999;DHT22;10211;49.476;11.010;2023-03-01T13:33:42;15.20;49.30
16999;DHT22;10211;49.476;11.010;2023-03-01T13:36:10;15.00;49.20
16999;DHT22;10211;49.476;11.010;2023-03-01T13:38:45;14.80;49.70
16999;DHT22;10211;49.476;11.010;2023-03-01T13:41:13;14.60;50.20
16999;DHT22;10211;49.476;11.010;2023-03-01T13:43:41;14.30;50.30
16999;DHT22;10211;49.476;11.010;2023-03-01T13:46:11;14.00;51.20
16999;DHT22;10211;49.476;11.010;2023-03-01T13:48:39;14.00;52.00
16999;DHT22;10211;49.476;11.010;2023-03-01T13:51:10;13.70;52.20
16999;DHT22;10211;49.476;11.010;2023-03-01T13:53:40;13.60;52.00
16999;DHT22;10211;49.476;11.010;2023-03-01T13:56:12;13.20;52.90
16999;DHT22;10211;49.476;11.010;2023-03-01T13:58:48;12.80;53.60
16999;DHT22;10211;49.476;11.010;2023-03-01T14:01:24;12.30;54.90
16999;DHT22;10211;49.476;11.010;2023-03-01T14:03:51;12.20;55.50
16999;DHT22;10211;49.476;11.010;2023-03-01T14:06:21;12.20;56.00
16999;DHT22;10211;49.476;11.010;2023-03-01T14:08:52;12.20;56.00
16999;DHT22;10211;49.476;11.010;2023-03-01T14:14:48;11.70;57.10
16999;DHT22;10211;49.476;11.010;2023-03-01T14:17:40;11.50;58.00
16999;DHT22;10211;49.476;11.010;2023-03-01T14:20:19;11.30;58.40
16999;DHT22;10211;49.476;11.010;2023-03-01T14:22:49;10.90;59.50
16999;DHT22;10211;49.476;11.010;2023-03-01T14:25:21;10.70;59.90
16999;DHT22;10211;49.476;11.010;2023-03-01T14:27:54;10.50;60.80
16999;DHT22;10211;49.476;11.010;2023-03-01T14:30:24;10.30;61.70
16999;DHT22;10211;49.476;11.010;2023-03-01T14:32:53;10.20;62.20
16999;DHT22;10211;49.476;11.010;2023-03-01T14:35:21;9.90;62.90
16999;DHT22;10211;49.476;11.010;2023-03-01T14:37:50;9.70;63.50
16999;DHT22;10211;49.476;11.010;2023-03-01T14:40:23;9.60;63.80
16999;DHT22;10211;49.476;11.010;2023-03-01T14:42:50;9.50;64.20
16999;DHT22;10211;49.476;11.010;2023-03-01T14:45:18;9.40;64.50
16999;DHT22;10211;49.476;11.010;2023-03-01T14:47:45;9.40;65.20
16999;DHT22;10211;49.476;11.010;2023-03-01T14:50:21;9.30;64.80
16999;DHT22;10211;49.476;11.010;2023-03-01T14:52:53;9.20;65.70
16999;DHT22;10211;49.476;11.010;2023-03-01T14:55:24;9.10;66.20
16999;DHT22;10211;49.476;11.010;2023-03-01T14:57:52;9.10;66.90
16999;DHT22;10211;49.476;11.010;2023-03-01T15:00:22;9.00;66.20
16999;DHT22;10211;49.476;11.010;2023-03-01T15:02:51;9.00;66.20
16999;DHT22;10211;49.476;11.010;2023-03-01T15:05:24;9.40;66.70
16999;DHT22;10211;49.476;11.010;2023-03-01T15:07:53;8.90;66.90
16999;DHT22;10211;49.476;11.010;2023-03-01T15:10:22;9.00;67.00
16999;DHT22;10211;49.476;11.010;2023-03-01T15:12:49;8.80;66.80
16999;DHT22;10211;49.476;11.010;2023-03-01T15:15:30;8.80;67.50
16999;DHT22;10211;49.476;11.010;2023-03-01T15:17:59;8.80;67.30
16999;DHT22;10211;49.476;11.010;2023-03-01T15:20:28;8.80;67.60
16999;DHT22;10211;49.476;11.010;2023-03-01T15:22:59;8.70;67.50
16999;DHT22;10211;49.476;11.010;2023-03-01T15:25:28;8.70;67.40
16999;DHT22;10211;49.476;11.010;2023-03-01T15:27:58;8.70;68.00
16999;DHT22;10211;49.476;11.010;2023-03-01T15:30:26;8.70;68.20
16999;DHT22;10211;49.476;11.010;2023-03-01T15:33:16;8.70;68.00
16999;DHT22;10211;49.476;11.010;2023-03-01T15:35:46;8.60;68.40
16999;DHT22;10211;49.476;11.010;2023-03-01T15:38:30;8.60;68.30
16999;DHT22;10211;49.476;11.010;2023-03-01T15:41:00;8.60;68.60
16999;DHT22;10211;49.476;11.010;2023-03-01T15:43:42;8.50;68.50
16999;DHT22;10211;49.476;11.010;2023-03-01T15:46:21;8.50;69.00
16999;DHT22;10211;49.476;11.010;2023-03-01T15:48:52;8.40;69.00
16999;DHT22;10211;49.476;11.010;2023-03-01T15:51:26;8.40;69.40
16999;DHT22;10211;49.476;11.010;2023-03-01T15:53:59;8.40;69.70